Strona główna
METAR-TAF:

METAR-TAF

Lotnisko :

Port lotniczy Kowno

Kowno, Litwa

Szerokość geograficzna: 54-54N, Długość geograficzna: 023-55-12E, wysokość: 77 m

Aktualna obserwacja pogody

Raport powstał 6 minut temu, godzina 07:20 UTC
Wiatr 4 kt od północ, zmienny między północny zachód i wschodnio-północny wschód
Temperatura 17°C
Wilgotność 72%
Ciśnienie 1020 hPa
Widzialność 10 km lub więcej
Rozproszone chmury na wysokości 2700 ft

METAR: EYKA 230720Z 01004KT 310V060 9999 SCT027 17/12 Q1020

czas: 10:26 (07:26 UTC)

Prognoza

Raport powstał 2 godziny i 26 minut temu, godzina 05:00 UTC
Prognoza ważna od 23 godzina 06 UTC do 24 godzina 06 UTC
Wiatr 10 kt od północny zachód
Widzialność: 9000 m
Rozproszone chmury na wysokości 4500 ft
Przejściowo
od 23 godzina 09 UTC do 23 godzina 13 UTC
Widzialność: 4000 m
Przerywane chmury na wysokości 3000 ft, Cumulonimbus.
burza, deszcz

TAF: EYKA 230500Z 2306/2406 32010KT 9000 SCT045 TEMPO 2309/2313 4000 TSRA BKN030CB

Obserwacja i prognoza pogody dla ponad 4000 lotnisk (raport METAR i TAF).

Dostępne stacje oznaczono żółtymi i czerwonymi punktami na mapie.

Najedź kursorem aby zobaczyć nazwę stacji.

Kliknij aby zobaczyć obserwacje i prognozy pogody.

Aby zmienić mapę: kliknij na zielony przycisk z czarnym krzyżykiem, aby powiększyć; na zielony przycisk z myślnikiem, aby pomniejszyć; na zielone strzałki, aby przejść do map sąsiednich.


METAR-TAF: